sensor_id;sensor_type;location;lat;lon;timestamp;P1;durP1;ratioP1;P2;durP2;ratioP2
19537;SDS011;9914;51.008;4.300;2023-11-19T00:00:33;726.00;;;686.23;;
19537;SDS011;9914;51.008;4.300;2023-11-19T00:02:59;697.40;;;659.27;;
19537;SDS011;9914;51.008;4.300;2023-11-19T00:05:25;680.40;;;642.70;;
19537;SDS011;9914;51.008;4.300;2023-11-19T00:07:52;966.90;;;885.73;;
19537;SDS011;9914;51.008;4.300;2023-11-19T00:10:18;767.33;;;725.33;;
19537;SDS011;9914;51.008;4.300;2023-11-19T00:12:45;653.57;;;619.57;;
19537;SDS011;9914;51.008;4.300;2023-11-19T00:15:12;670.77;;;630.90;;
19537;SDS011;9914;51.008;4.300;2023-11-19T00:17:38;635.57;;;602.57;;
19537;SDS011;9914;51.008;4.300;2023-11-19T00:20:15;714.60;;;667.90;;
19537;SDS011;9914;51.008;4.300;2023-11-19T00:22:42;574.70;;;545.80;;
19537;SDS011;9914;51.008;4.300;2023-11-19T00:25:08;598.80;;;568.63;;
19537;SDS011;9914;51.008;4.300;2023-11-19T00:27:35;590.00;;;559.77;;
19537;SDS011;9914;51.008;4.300;2023-11-19T00:30:02;570.07;;;541.57;;
19537;SDS011;9914;51.008;4.300;2023-11-19T00:32:32;567.33;;;539.20;;
19537;SDS011;9914;51.008;4.300;2023-11-19T00:34:58;578.77;;;549.87;;
19537;SDS011;9914;51.008;4.300;2023-11-19T00:37:23;537.30;;;510.83;;
19537;SDS011;9914;51.008;4.300;2023-11-19T00:39:49;677.87;;;642.17;;
19537;SDS011;9914;51.008;4.300;2023-11-19T00:42:15;554.53;;;526.47;;
19537;SDS011;9914;51.008;4.300;2023-11-19T00:44:40;598.93;;;568.37;;
19537;SDS011;9914;51.008;4.300;2023-11-19T00:47:06;547.97;;;519.87;;
19537;SDS011;9914;51.008;4.300;2023-11-19T00:49:32;560.57;;;531.73;;
19537;SDS011;9914;51.008;4.300;2023-11-19T00:51:58;582.23;;;552.17;;
19537;SDS011;9914;51.008;4.300;2023-11-19T00:54:24;628.17;;;595.43;;
19537;SDS011;9914;51.008;4.300;2023-11-19T00:56:53;614.80;;;583.00;;
19537;SDS011;9914;51.008;4.300;2023-11-19T00:59:20;523.53;;;497.73;;
19537;SDS011;9914;51.008;4.300;2023-11-19T01:01:45;509.70;;;485.10;;
19537;SDS011;9914;51.008;4.300;2023-11-19T01:04:16;485.87;;;462.67;;
19537;SDS011;9914;51.008;4.300;2023-11-19T01:06:41;503.57;;;479.47;;
19537;SDS011;9914;51.008;4.300;2023-11-19T01:09:07;536.10;;;510.47;;
19537;SDS011;9914;51.008;4.300;2023-11-19T01:11:34;490.43;;;467.00;;
19537;SDS011;9914;51.008;4.300;2023-11-19T01:13:59;475.83;;;453.00;;
19537;SDS011;9914;51.008;4.300;2023-11-19T01:16:26;463.10;;;441.43;;
19537;SDS011;9914;51.008;4.300;2023-11-19T01:18:52;464.43;;;443.00;;
19537;SDS011;9914;51.008;4.300;2023-11-19T01:21:18;455.50;;;434.03;;
19537;SDS011;9914;51.008;4.300;2023-11-19T01:23:43;840.10;;;782.63;;
19537;SDS011;9914;51.008;4.300;2023-11-19T01:26:10;398.23;;;380.70;;
19537;SDS011;9914;51.008;4.300;2023-11-19T01:28:36;366.60;;;350.43;;
19537;SDS011;9914;51.008;4.300;2023-11-19T01:31:01;332.83;;;318.67;;
19537;SDS011;9914;51.008;4.300;2023-11-19T01:33:28;345.10;;;329.93;;
19537;SDS011;9914;51.008;4.300;2023-11-19T01:35:54;396.07;;;379.17;;
19537;SDS011;9914;51.008;4.300;2023-11-19T01:38:21;287.57;;;275.70;;
19537;SDS011;9914;51.008;4.300;2023-11-19T01:40:46;265.57;;;254.17;;
19537;SDS011;9914;51.008;4.300;2023-11-19T01:43:12;291.63;;;279.33;;
19537;SDS011;9914;51.008;4.300;2023-11-19T01:45:58;281.10;;;269.47;;
19537;SDS011;9914;51.008;4.300;2023-11-19T01:48:23;282.60;;;270.47;;
19537;SDS011;9914;51.008;4.300;2023-11-19T01:50:49;235.37;;;225.00;;
19537;SDS011;9914;51.008;4.300;2023-11-19T01:53:17;242.33;;;232.20;;
19537;SDS011;9914;51.008;4.300;2023-11-19T01:55:43;247.17;;;236.97;;
19537;SDS011;9914;51.008;4.300;2023-11-19T01:58:08;240.23;;;230.37;;
19537;SDS011;9914;51.008;4.300;2023-11-19T02:00:34;239.97;;;230.13;;
19537;SDS011;9914;51.008;4.300;2023-11-19T02:03:00;241.60;;;231.20;;
19537;SDS011;9914;51.008;4.300;2023-11-19T02:05:26;241.07;;;231.13;;
19537;SDS011;9914;51.008;4.300;2023-11-19T02:07:51;247.97;;;238.40;;
19537;SDS011;9914;51.008;4.300;2023-11-19T02:10:17;247.10;;;236.90;;
19537;SDS011;9914;51.008;4.300;2023-11-19T02:12:44;246.73;;;236.17;;
19537;SDS011;9914;51.008;4.300;2023-11-19T02:15:10;256.60;;;246.50;;
19537;SDS011;9914;51.008;4.300;2023-11-19T02:17:36;242.00;;;232.07;;
19537;SDS011;9914;51.008;4.300;2023-11-19T02:20:05;228.87;;;218.83;;
19537;SDS011;9914;51.008;4.300;2023-11-19T02:22:34;225.77;;;216.47;;
19537;SDS011;9914;51.008;4.300;2023-11-19T02:25:00;241.20;;;231.73;;
19537;SDS011;9914;51.008;4.300;2023-11-19T02:30:10;242.90;;;233.40;;
19537;SDS011;9914;51.008;4.300;2023-11-19T02:32:40;234.13;;;223.63;;
19537;SDS011;9914;51.008;4.300;2023-11-19T02:35:06;248.30;;;238.50;;
19537;SDS011;9914;51.008;4.300;2023-11-19T02:37:36;253.33;;;242.67;;
19537;SDS011;9914;51.008;4.300;2023-11-19T02:40:04;237.60;;;227.37;;
19537;SDS011;9914;51.008;4.300;2023-11-19T02:42:30;269.07;;;258.10;;
19537;SDS011;9914;51.008;4.300;2023-11-19T02:44:56;251.07;;;240.87;;
19537;SDS011;9914;51.008;4.300;2023-11-19T02:47:22;273.07;;;260.53;;
19537;SDS011;9914;51.008;4.300;2023-11-19T02:49:49;258.50;;;247.60;;
19537;SDS011;9914;51.008;4.300;2023-11-19T02:52:15;267.70;;;256.13;;
19537;SDS011;9914;51.008;4.300;2023-11-19T02:54:40;259.77;;;248.87;;
19537;SDS011;9914;51.008;4.300;2023-11-19T02:57:07;245.20;;;234.30;;
19537;SDS011;9914;51.008;4.300;2023-11-19T02:59:35;244.17;;;233.50;;
19537;SDS011;9914;51.008;4.300;2023-11-19T03:02:07;248.83;;;237.90;;
19537;SDS011;9914;51.008;4.300;2023-11-19T03:04:36;225.10;;;215.73;;
19537;SDS011;9914;51.008;4.300;2023-11-19T03:07:05;225.63;;;216.30;;
19537;SDS011;9914;51.008;4.300;2023-11-19T03:09:32;206.70;;;197.60;;
19537;SDS011;9914;51.008;4.300;2023-11-19T03:11:58;214.70;;;205.83;;
19537;SDS011;9914;51.008;4.300;2023-11-19T03:14:24;195.53;;;186.80;;
19537;SDS011;9914;51.008;4.300;2023-11-19T03:16:50;226.40;;;216.10;;
19537;SDS011;9914;51.008;4.300;2023-11-19T03:19:16;210.23;;;201.40;;
19537;SDS011;9914;51.008;4.300;2023-11-19T03:21:41;237.07;;;226.43;;
19537;SDS011;9914;51.008;4.300;2023-11-19T03:24:07;193.47;;;184.67;;
19537;SDS011;9914;51.008;4.300;2023-11-19T03:26:33;196.77;;;188.57;;
19537;SDS011;9914;51.008;4.300;2023-11-19T03:28:59;202.23;;;193.30;;
19537;SDS011;9914;51.008;4.300;2023-11-19T03:31:25;268.03;;;255.90;;
19537;SDS011;9914;51.008;4.300;2023-11-19T03:33:51;241.60;;;231.17;;
19537;SDS011;9914;51.008;4.300;2023-11-19T03:36:16;200.83;;;191.67;;
19537;SDS011;9914;51.008;4.300;2023-11-19T03:38:42;211.60;;;201.57;;
19537;SDS011;9914;51.008;4.300;2023-11-19T03:41:11;236.53;;;226.10;;
19537;SDS011;9914;51.008;4.300;2023-11-19T03:43:38;187.87;;;179.67;;
19537;SDS011;9914;51.008;4.300;2023-11-19T03:46:04;186.87;;;178.93;;
19537;SDS011;9914;51.008;4.300;2023-11-19T03:48:40;690.93;;;645.60;;
19537;SDS011;9914;51.008;4.300;2023-11-19T03:51:05;209.17;;;200.20;;
19537;SDS011;9914;51.008;4.300;2023-11-19T03:53:31;168.63;;;161.37;;
19537;SDS011;9914;51.008;4.300;2023-11-19T03:55:56;167.03;;;159.87;;
19537;SDS011;9914;51.008;4.300;2023-11-19T03:58:22;147.87;;;140.87;;
19537;SDS011;9914;51.008;4.300;2023-11-19T04:00:47;122.60;;;117.27;;
19537;SDS011;9914;51.008;4.300;2023-11-19T04:03:13;131.13;;;124.43;;
19537;SDS011;9914;51.008;4.300;2023-11-19T04:05:39;130.70;;;124.00;;
19537;SDS011;9914;51.008;4.300;2023-11-19T04:08:04;116.43;;;111.03;;
19537;SDS011;9914;51.008;4.300;2023-11-19T04:10:30;278.40;;;265.67;;
19537;SDS011;9914;51.008;4.300;2023-11-19T04:12:56;114.00;;;108.17;;
19537;SDS011;9914;51.008;4.300;2023-11-19T04:15:21;114.20;;;107.50;;
19537;SDS011;9914;51.008;4.300;2023-11-19T04:17:47;103.97;;;98.33;;
19537;SDS011;9914;51.008;4.300;2023-11-19T04:20:13;119.97;;;113.97;;
19537;SDS011;9914;51.008;4.300;2023-11-19T04:22:39;164.83;;;157.67;;
19537;SDS011;9914;51.008;4.300;2023-11-19T04:25:05;104.93;;;99.27;;
19537;SDS011;9914;51.008;4.300;2023-11-19T04:27:31;106.77;;;100.70;;
19537;SDS011;9914;51.008;4.300;2023-11-19T04:29:57;110.80;;;104.93;;
19537;SDS011;9914;51.008;4.300;2023-11-19T04:32:22;108.27;;;102.27;;
19537;SDS011;9914;51.008;4.300;2023-11-19T04:34:50;105.47;;;100.00;;
19537;SDS011;9914;51.008;4.300;2023-11-19T04:37:16;103.70;;;98.70;;
19537;SDS011;9914;51.008;4.300;2023-11-19T04:39:41;95.70;;;90.63;;
19537;SDS011;9914;51.008;4.300;2023-11-19T04:42:09;88.77;;;83.87;;
19537;SDS011;9914;51.008;4.300;2023-11-19T04:44:35;90.90;;;86.07;;
19537;SDS011;9914;51.008;4.300;2023-11-19T04:47:00;85.90;;;80.83;;
19537;SDS011;9914;51.008;4.300;2023-11-19T04:49:26;93.67;;;88.70;;
19537;SDS011;9914;51.008;4.300;2023-11-19T04:51:52;95.87;;;89.50;;
19537;SDS011;9914;51.008;4.300;2023-11-19T04:54:18;99.30;;;94.00;;
19537;SDS011;9914;51.008;4.300;2023-11-19T04:56:47;448.43;;;420.33;;
19537;SDS011;9914;51.008;4.300;2023-11-19T04:59:13;111.93;;;105.40;;
19537;SDS011;9914;51.008;4.300;2023-11-19T05:01:39;112.20;;;106.20;;
19537;SDS011;9914;51.008;4.300;2023-11-19T05:04:05;106.67;;;101.40;;
19537;SDS011;9914;51.008;4.300;2023-11-19T05:06:32;117.73;;;111.83;;
19537;SDS011;9914;51.008;4.300;2023-11-19T05:08:58;115.57;;;109.90;;
19537;SDS011;9914;51.008;4.300;2023-11-19T05:11:35;110.63;;;104.10;;
19537;SDS011;9914;51.008;4.300;2023-11-19T05:14:04;112.73;;;107.13;;
19537;SDS011;9914;51.008;4.300;2023-11-19T05:16:30;104.17;;;98.87;;
19537;SDS011;9914;51.008;4.300;2023-11-19T05:18:56;110.80;;;105.23;;
19537;SDS011;9914;51.008;4.300;2023-11-19T05:21:21;108.60;;;101.93;;
19537;SDS011;9914;51.008;4.300;2023-11-19T05:23:47;107.33;;;100.93;;
19537;SDS011;9914;51.008;4.300;2023-11-19T05:26:19;121.47;;;115.53;;
19537;SDS011;9914;51.008;4.300;2023-11-19T05:28:46;111.60;;;106.23;;
19537;SDS011;9914;51.008;4.300;2023-11-19T05:31:12;106.27;;;99.90;;
19537;SDS011;9914;51.008;4.300;2023-11-19T05:33:38;111.23;;;105.60;;
19537;SDS011;9914;51.008;4.300;2023-11-19T05:36:04;103.83;;;98.57;;
19537;SDS011;9914;51.008;4.300;2023-11-19T05:38:30;106.93;;;100.40;;
19537;SDS011;9914;51.008;4.300;2023-11-19T05:40:56;137.27;;;129.83;;
19537;SDS011;9914;51.008;4.300;2023-11-19T05:43:22;113.50;;;107.53;;
19537;SDS011;9914;51.008;4.300;2023-11-19T05:45:47;117.10;;;111.00;;
19537;SDS011;9914;51.008;4.300;2023-11-19T05:48:13;115.57;;;108.97;;
19537;SDS011;9914;51.008;4.300;2023-11-19T05:50:39;106.33;;;100.40;;
19537;SDS011;9914;51.008;4.300;2023-11-19T05:53:04;105.40;;;99.53;;
19537;SDS011;9914;51.008;4.300;2023-11-19T05:55:34;97.17;;;92.17;;
19537;SDS011;9914;51.008;4.300;2023-11-19T05:58:00;91.07;;;86.53;;
19537;SDS011;9914;51.008;4.300;2023-11-19T06:00:26;85.60;;;79.93;;
19537;SDS011;9914;51.008;4.300;2023-11-19T06:02:52;78.00;;;73.27;;
19537;SDS011;9914;51.008;4.300;2023-11-19T06:05:18;86.83;;;81.33;;
19537;SDS011;9914;51.008;4.300;2023-11-19T06:07:43;101.00;;;95.20;;
19537;SDS011;9914;51.008;4.300;2023-11-19T06:10:09;110.17;;;103.37;;
19537;SDS011;9914;51.008;4.300;2023-11-19T06:12:36;82.93;;;78.20;;
19537;SDS011;9914;51.008;4.300;2023-11-19T06:15:04;84.13;;;79.33;;
19537;SDS011;9914;51.008;4.300;2023-11-19T06:17:31;91.87;;;86.87;;
19537;SDS011;9914;51.008;4.300;2023-11-19T06:19:56;84.80;;;79.77;;
19537;SDS011;9914;51.008;4.300;2023-11-19T06:22:22;615.10;;;561.90;;
19537;SDS011;9914;51.008;4.300;2023-11-19T06:24:47;84.90;;;80.00;;
19537;SDS011;9914;51.008;4.300;2023-11-19T06:27:13;83.63;;;79.00;;
19537;SDS011;9914;51.008;4.300;2023-11-19T06:29:39;128.67;;;122.00;;
19537;SDS011;9914;51.008;4.300;2023-11-19T06:32:06;87.03;;;81.87;;
19537;SDS011;9914;51.008;4.300;2023-11-19T06:34:33;92.07;;;86.83;;
19537;SDS011;9914;51.008;4.300;2023-11-19T06:36:59;254.57;;;241.37;;
19537;SDS011;9914;51.008;4.300;2023-11-19T06:39:24;333.47;;;314.93;;
19537;SDS011;9914;51.008;4.300;2023-11-19T06:41:50;102.30;;;96.47;;
19537;SDS011;9914;51.008;4.300;2023-11-19T06:44:16;114.13;;;107.87;;
19537;SDS011;9914;51.008;4.300;2023-11-19T06:46:42;86.40;;;81.67;;
19537;SDS011;9914;51.008;4.300;2023-11-19T06:49:08;94.47;;;88.93;;
19537;SDS011;9914;51.008;4.300;2023-11-19T06:51:34;582.37;;;545.47;;
19537;SDS011;9914;51.008;4.300;2023-11-19T06:53:59;119.63;;;111.90;;
19537;SDS011;9914;51.008;4.300;2023-11-19T06:56:25;130.57;;;123.57;;
19537;SDS011;9914;51.008;4.300;2023-11-19T06:58:52;136.83;;;129.37;;
19537;SDS011;9914;51.008;4.300;2023-11-19T07:01:18;122.33;;;115.80;;
19537;SDS011;9914;51.008;4.300;2023-11-19T07:03:45;140.00;;;131.90;;
19537;SDS011;9914;51.008;4.300;2023-11-19T07:06:11;179.90;;;170.70;;
19537;SDS011;9914;51.008;4.300;2023-11-19T07:08:38;138.30;;;130.63;;
19537;SDS011;9914;51.008;4.300;2023-11-19T07:11:04;146.50;;;139.30;;
19537;SDS011;9914;51.008;4.300;2023-11-19T07:13:29;143.90;;;136.80;;
19537;SDS011;9914;51.008;4.300;2023-11-19T07:15:58;145.43;;;138.80;;
19537;SDS011;9914;51.008;4.300;2023-11-19T07:18:23;240.70;;;228.47;;
19537;SDS011;9914;51.008;4.300;2023-11-19T07:20:50;552.83;;;516.77;;
19537;SDS011;9914;51.008;4.300;2023-11-19T07:23:15;158.67;;;150.47;;
19537;SDS011;9914;51.008;4.300;2023-11-19T07:25:42;390.43;;;367.40;;
19537;SDS011;9914;51.008;4.300;2023-11-19T07:28:09;115.00;;;108.77;;
19537;SDS011;9914;51.008;4.300;2023-11-19T07:30:35;143.07;;;135.87;;
19537;SDS011;9914;51.008;4.300;2023-11-19T07:33:02;147.40;;;139.93;;
19537;SDS011;9914;51.008;4.300;2023-11-19T07:35:29;140.33;;;133.93;;
19537;SDS011;9914;51.008;4.300;2023-11-19T07:37:57;307.50;;;292.13;;
19537;SDS011;9914;51.008;4.300;2023-11-19T07:40:23;127.10;;;120.13;;
19537;SDS011;9914;51.008;4.300;2023-11-19T07:42:49;122.30;;;115.97;;
19537;SDS011;9914;51.008;4.300;2023-11-19T07:45:15;108.73;;;102.73;;
19537;SDS011;9914;51.008;4.300;2023-11-19T07:47:41;163.83;;;155.40;;
19537;SDS011;9914;51.008;4.300;2023-11-19T07:50:09;141.20;;;133.03;;
19537;SDS011;9914;51.008;4.300;2023-11-19T07:52:35;180.00;;;171.60;;
19537;SDS011;9914;51.008;4.300;2023-11-19T07:55:02;136.30;;;129.30;;
19537;SDS011;9914;51.008;4.300;2023-11-19T07:57:28;136.73;;;128.60;;
19537;SDS011;9914;51.008;4.300;2023-11-19T07:59:56;117.63;;;111.17;;
19537;SDS011;9914;51.008;4.300;2023-11-19T08:02:26;122.60;;;117.07;;
19537;SDS011;9914;51.008;4.300;2023-11-19T08:04:52;97.60;;;92.60;;
19537;SDS011;9914;51.008;4.300;2023-11-19T08:07:19;91.60;;;86.10;;
19537;SDS011;9914;51.008;4.300;2023-11-19T08:09:45;131.10;;;124.60;;
19537;SDS011;9914;51.008;4.300;2023-11-19T08:12:12;106.00;;;100.37;;
19537;SDS011;9914;51.008;4.300;2023-11-19T08:14:39;113.70;;;107.87;;
19537;SDS011;9914;51.008;4.300;2023-11-19T08:17:05;130.23;;;122.83;;
19537;SDS011;9914;51.008;4.300;2023-11-19T08:19:31;416.13;;;391.73;;
19537;SDS011;9914;51.008;4.300;2023-11-19T08:21:57;157.73;;;149.67;;
19537;SDS011;9914;51.008;4.300;2023-11-19T08:24:22;281.07;;;268.10;;
19537;SDS011;9914;51.008;4.300;2023-11-19T08:26:48;116.43;;;110.30;;
19537;SDS011;9914;51.008;4.300;2023-11-19T08:29:14;240.50;;;228.53;;
19537;SDS011;9914;51.008;4.300;2023-11-19T08:31:39;188.73;;;180.53;;
19537;SDS011;9914;51.008;4.300;2023-11-19T08:34:05;490.13;;;457.73;;
19537;SDS011;9914;51.008;4.300;2023-11-19T08:36:33;190.07;;;181.87;;
19537;SDS011;9914;51.008;4.300;2023-11-19T08:38:59;271.60;;;255.87;;
19537;SDS011;9914;51.008;4.300;2023-11-19T08:41:25;114.00;;;108.30;;
19537;SDS011;9914;51.008;4.300;2023-11-19T08:43:51;146.87;;;140.30;;
19537;SDS011;9914;51.008;4.300;2023-11-19T08:46:16;103.00;;;97.67;;
19537;SDS011;9914;51.008;4.300;2023-11-19T08:48:42;132.97;;;126.83;;
19537;SDS011;9914;51.008;4.300;2023-11-19T08:51:08;108.27;;;102.67;;
19537;SDS011;9914;51.008;4.300;2023-11-19T08:53:33;97.03;;;91.17;;
19537;SDS011;9914;51.008;4.300;2023-11-19T08:55:59;110.23;;;104.77;;
19537;SDS011;9914;51.008;4.300;2023-11-19T08:58:25;292.70;;;278.43;;
19537;SDS011;9914;51.008;4.300;2023-11-19T09:00:51;127.50;;;121.73;;
19537;SDS011;9914;51.008;4.300;2023-11-19T09:03:16;148.27;;;141.07;;
19537;SDS011;9914;51.008;4.300;2023-11-19T09:05:42;110.13;;;104.77;;
19537;SDS011;9914;51.008;4.300;2023-11-19T09:08:08;255.70;;;244.30;;
19537;SDS011;9914;51.008;4.300;2023-11-19T09:10:34;130.83;;;124.63;;
19537;SDS011;9914;51.008;4.300;2023-11-19T09:12:59;165.80;;;158.40;;
19537;SDS011;9914;51.008;4.300;2023-11-19T09:15:25;256.77;;;245.30;;
19537;SDS011;9914;51.008;4.300;2023-11-19T09:17:50;116.17;;;110.37;;
19537;SDS011;9914;51.008;4.300;2023-11-19T09:20:16;198.97;;;189.23;;
19537;SDS011;9914;51.008;4.300;2023-11-19T09:22:41;202.40;;;192.83;;
19537;SDS011;9914;51.008;4.300;2023-11-19T09:25:07;128.23;;;121.83;;
19537;SDS011;9914;51.008;4.300;2023-11-19T09:27:33;201.53;;;193.17;;
19537;SDS011;9914;51.008;4.300;2023-11-19T09:29:59;148.13;;;141.03;;
19537;SDS011;9914;51.008;4.300;2023-11-19T09:32:24;336.40;;;319.03;;
19537;SDS011;9914;51.008;4.300;2023-11-19T09:34:50;215.50;;;205.67;;
19537;SDS011;9914;51.008;4.300;2023-11-19T09:37:16;112.17;;;106.53;;
19537;SDS011;9914;51.008;4.300;2023-11-19T09:39:41;98.63;;;93.47;;
19537;SDS011;9914;51.008;4.300;2023-11-19T09:42:10;213.37;;;201.63;;
19537;SDS011;9914;51.008;4.300;2023-11-19T09:44:37;63.13;;;59.80;;
19537;SDS011;9914;51.008;4.300;2023-11-19T09:47:04;111.30;;;105.57;;
19537;SDS011;9914;51.008;4.300;2023-11-19T09:49:30;167.10;;;159.10;;
19537;SDS011;9914;51.008;4.300;2023-11-19T09:51:56;57.00;;;53.43;;
19537;SDS011;9914;51.008;4.300;2023-11-19T09:54:22;51.13;;;48.07;;
19537;SDS011;9914;51.008;4.300;2023-11-19T09:56:48;179.73;;;171.30;;
19537;SDS011;9914;51.008;4.300;2023-11-19T09:59:14;177.30;;;169.57;;
19537;SDS011;9914;51.008;4.300;2023-11-19T10:01:40;156.37;;;148.83;;
19537;SDS011;9914;51.008;4.300;2023-11-19T10:04:07;152.33;;;144.20;;
19537;SDS011;9914;51.008;4.300;2023-11-19T10:06:34;153.77;;;146.77;;
19537;SDS011;9914;51.008;4.300;2023-11-19T10:09:00;168.73;;;160.73;;
19537;SDS011;9914;51.008;4.300;2023-11-19T10:11:26;147.63;;;141.03;;
19537;SDS011;9914;51.008;4.300;2023-11-19T10:13:53;150.43;;;144.07;;
19537;SDS011;9914;51.008;4.300;2023-11-19T10:16:18;197.03;;;188.30;;
19537;SDS011;9914;51.008;4.300;2023-11-19T10:18:44;162.50;;;155.67;;
19537;SDS011;9914;51.008;4.300;2023-11-19T10:21:11;182.33;;;174.63;;
19537;SDS011;9914;51.008;4.300;2023-11-19T10:26:17;117.53;;;112.23;;
19537;SDS011;9914;51.008;4.300;2023-11-19T10:28:45;60.60;;;57.20;;
19537;SDS011;9914;51.008;4.300;2023-11-19T10:31:15;40.53;;;37.70;;
19537;SDS011;9914;51.008;4.300;2023-11-19T10:33:42;172.17;;;164.07;;
19537;SDS011;9914;51.008;4.300;2023-11-19T10:36:09;56.00;;;52.10;;
19537;SDS011;9914;51.008;4.300;2023-11-19T10:38:37;214.73;;;204.27;;
19537;SDS011;9914;51.008;4.300;2023-11-19T10:41:03;101.67;;;96.27;;
19537;SDS011;9914;51.008;4.300;2023-11-19T10:43:30;66.80;;;62.93;;
19537;SDS011;9914;51.008;4.300;2023-11-19T10:46:09;50.70;;;47.47;;
19537;SDS011;9914;51.008;4.300;2023-11-19T10:48:36;120.87;;;114.57;;
19537;SDS011;9914;51.008;4.300;2023-11-19T10:51:01;67.77;;;63.73;;
19537;SDS011;9914;51.008;4.300;2023-11-19T10:53:31;59.93;;;56.23;;
19537;SDS011;9914;51.008;4.300;2023-11-19T10:56:01;67.43;;;63.80;;
19537;SDS011;9914;51.008;4.300;2023-11-19T10:58:29;60.60;;;56.93;;
19537;SDS011;9914;51.008;4.300;2023-11-19T11:01:01;83.50;;;79.13;;
19537;SDS011;9914;51.008;4.300;2023-11-19T11:03:31;96.70;;;91.87;;
19537;SDS011;9914;51.008;4.300;2023-11-19T11:06:04;131.60;;;124.47;;
19537;SDS011;9914;51.008;4.300;2023-11-19T11:08:30;36.83;;;34.13;;
19537;SDS011;9914;51.008;4.300;2023-11-19T11:10:56;40.83;;;37.53;;
19537;SDS011;9914;51.008;4.300;2023-11-19T11:13:23;36.17;;;33.97;;
19537;SDS011;9914;51.008;4.300;2023-11-19T11:15:50;65.23;;;61.67;;
19537;SDS011;9914;51.008;4.300;2023-11-19T11:18:16;34.93;;;32.20;;
19537;SDS011;9914;51.008;4.300;2023-11-19T11:20:45;36.07;;;32.07;;
19537;SDS011;9914;51.008;4.300;2023-11-19T11:36:28;95.57;;;90.53;;
19537;SDS011;9914;51.008;4.300;2023-11-19T11:39:01;80.50;;;76.27;;
19537;SDS011;9914;51.008;4.300;2023-11-19T11:41:32;43.53;;;40.60;;
19537;SDS011;9914;51.008;4.300;2023-11-19T11:43:58;146.57;;;139.63;;
19537;SDS011;9914;51.008;4.300;2023-11-19T11:49:02;73.53;;;69.23;;
19537;SDS011;9914;51.008;4.300;2023-11-19T11:54:09;70.47;;;66.17;;
19537;SDS011;9914;51.008;4.300;2023-11-19T11:59:50;51.07;;;48.10;;
19537;SDS011;9914;51.008;4.300;2023-11-19T12:02:19;43.77;;;40.87;;
19537;SDS011;9914;51.008;4.300;2023-11-19T12:04:47;40.37;;;37.37;;
19537;SDS011;9914;51.008;4.300;2023-11-19T12:09:42;405.03;;;377.27;;
19537;SDS011;9914;51.008;4.300;2023-11-19T12:19:59;47.97;;;45.33;;
19537;SDS011;9914;51.008;4.300;2023-11-19T12:22:25;320.90;;;306.10;;
19537;SDS011;9914;51.008;4.300;2023-11-19T12:24:51;135.87;;;129.27;;
19537;SDS011;9914;51.008;4.300;2023-11-19T12:27:19;72.37;;;68.07;;
19537;SDS011;9914;51.008;4.300;2023-11-19T12:29:47;37.83;;;35.27;;
19537;SDS011;9914;51.008;4.300;2023-11-19T12:32:13;70.67;;;66.97;;
19537;SDS011;9914;51.008;4.300;2023-11-19T12:34:38;77.17;;;73.47;;
19537;SDS011;9914;51.008;4.300;2023-11-19T12:37:04;107.03;;;101.70;;
19537;SDS011;9914;51.008;4.300;2023-11-19T12:39:31;164.40;;;155.67;;
19537;SDS011;9914;51.008;4.300;2023-11-19T12:41:56;44.77;;;41.77;;
19537;SDS011;9914;51.008;4.300;2023-11-19T12:44:24;37.37;;;35.00;;
19537;SDS011;9914;51.008;4.300;2023-11-19T12:47:00;130.97;;;125.00;;
19537;SDS011;9914;51.008;4.300;2023-11-19T12:49:29;179.53;;;170.53;;
19537;SDS011;9914;51.008;4.300;2023-11-19T12:51:55;44.00;;;41.10;;
19537;SDS011;9914;51.008;4.300;2023-11-19T12:54:42;176.37;;;167.80;;
19537;SDS011;9914;51.008;4.300;2023-11-19T12:57:07;40.43;;;38.47;;
19537;SDS011;9914;51.008;4.300;2023-11-19T12:59:33;39.60;;;36.63;;
19537;SDS011;9914;51.008;4.300;2023-11-19T13:01:59;41.90;;;38.73;;
19537;SDS011;9914;51.008;4.300;2023-11-19T13:04:29;77.67;;;73.27;;
19537;SDS011;9914;51.008;4.300;2023-11-19T13:06:58;88.80;;;84.03;;
19537;SDS011;9914;51.008;4.300;2023-11-19T13:09:24;89.93;;;85.67;;
19537;SDS011;9914;51.008;4.300;2023-11-19T13:11:51;111.73;;;106.50;;
19537;SDS011;9914;51.008;4.300;2023-11-19T13:14:18;139.93;;;133.07;;
19537;SDS011;9914;51.008;4.300;2023-11-19T13:16:44;140.47;;;134.23;;
19537;SDS011;9914;51.008;4.300;2023-11-19T13:19:13;431.23;;;411.13;;
19537;SDS011;9914;51.008;4.300;2023-11-19T13:21:39;115.23;;;109.67;;
19537;SDS011;9914;51.008;4.300;2023-11-19T13:24:08;127.83;;;121.53;;
19537;SDS011;9914;51.008;4.300;2023-11-19T13:26:34;184.70;;;176.47;;
19537;SDS011;9914;51.008;4.300;2023-11-19T13:29:00;86.93;;;82.60;;
19537;SDS011;9914;51.008;4.300;2023-11-19T13:31:25;133.57;;;126.87;;
19537;SDS011;9914;51.008;4.300;2023-11-19T13:33:51;82.27;;;77.17;;
19537;SDS011;9914;51.008;4.300;2023-11-19T13:36:17;100.30;;;95.37;;
19537;SDS011;9914;51.008;4.300;2023-11-19T13:38:43;117.93;;;112.50;;
19537;SDS011;9914;51.008;4.300;2023-11-19T13:41:11;121.83;;;116.20;;
19537;SDS011;9914;51.008;4.300;2023-11-19T13:43:38;407.33;;;384.50;;
19537;SDS011;9914;51.008;4.300;2023-11-19T13:46:04;165.50;;;157.63;;
19537;SDS011;9914;51.008;4.300;2023-11-19T13:48:30;149.77;;;142.70;;
19537;SDS011;9914;51.008;4.300;2023-11-19T13:50:57;158.20;;;150.80;;
19537;SDS011;9914;51.008;4.300;2023-11-19T13:53:23;169.57;;;161.83;;
19537;SDS011;9914;51.008;4.300;2023-11-19T13:55:49;315.20;;;300.67;;
19537;SDS011;9914;51.008;4.300;2023-11-19T13:58:15;156.93;;;149.57;;
19537;SDS011;9914;51.008;4.300;2023-11-19T14:00:41;117.50;;;111.93;;
19537;SDS011;9914;51.008;4.300;2023-11-19T14:03:07;81.63;;;77.73;;
19537;SDS011;9914;51.008;4.300;2023-11-19T14:05:34;69.73;;;66.07;;
19537;SDS011;9914;51.008;4.300;2023-11-19T14:08:00;98.90;;;93.93;;
19537;SDS011;9914;51.008;4.300;2023-11-19T14:10:26;134.03;;;127.43;;
19537;SDS011;9914;51.008;4.300;2023-11-19T14:12:51;65.40;;;61.23;;
19537;SDS011;9914;51.008;4.300;2023-11-19T14:15:17;73.83;;;68.80;;
19537;SDS011;9914;51.008;4.300;2023-11-19T14:17:43;160.80;;;153.40;;
19537;SDS011;9914;51.008;4.300;2023-11-19T14:20:09;77.13;;;73.13;;
19537;SDS011;9914;51.008;4.300;2023-11-19T14:22:47;112.63;;;107.07;;
19537;SDS011;9914;51.008;4.300;2023-11-19T14:25:14;107.00;;;102.07;;
19537;SDS011;9914;51.008;4.300;2023-11-19T14:27:40;325.17;;;308.50;;
19537;SDS011;9914;51.008;4.300;2023-11-19T14:30:07;140.13;;;133.20;;
19537;SDS011;9914;51.008;4.300;2023-11-19T14:32:36;367.90;;;346.17;;
19537;SDS011;9914;51.008;4.300;2023-11-19T14:35:02;318.67;;;302.70;;
19537;SDS011;9914;51.008;4.300;2023-11-19T14:37:32;118.97;;;112.23;;
19537;SDS011;9914;51.008;4.300;2023-11-19T14:39:58;116.63;;;111.57;;
19537;SDS011;9914;51.008;4.300;2023-11-19T14:42:24;85.87;;;81.23;;
19537;SDS011;9914;51.008;4.300;2023-11-19T14:44:50;219.20;;;208.83;;
19537;SDS011;9914;51.008;4.300;2023-11-19T14:47:20;149.87;;;142.50;;
19537;SDS011;9914;51.008;4.300;2023-11-19T14:49:46;229.97;;;220.17;;